createdAt,value
2022-10-07T00:00:55.061Z,499.7
2022-10-07T00:01:57.878Z,499.7
2022-10-07T00:03:00.092Z,499.6
2022-10-07T00:04:02.368Z,499.8
2022-10-07T00:05:04.818Z,500
2022-10-07T00:06:07.284Z,500.1
2022-10-07T00:07:09.745Z,499.7
2022-10-07T00:08:11.943Z,499.6
2022-10-07T00:09:14.129Z,499.9
2022-10-07T00:10:16.598Z,500
2022-10-07T00:11:19.062Z,500.4
2022-10-07T00:12:21.558Z,500.3
2022-10-07T00:13:23.766Z,500.1
2022-10-07T00:14:25.951Z,500.9
2022-10-07T00:15:28.139Z,500.4
2022-10-07T00:16:31.022Z,500.5
2022-10-07T00:17:32.939Z,500.7
2022-10-07T00:18:35.393Z,500.4
2022-10-07T00:19:37.923Z,500.8
2022-10-07T00:20:40.101Z,500.9
2022-10-07T00:21:42.291Z,500.8
2022-10-07T00:22:44.491Z,500.9
2022-10-07T00:23:46.397Z,500.5
2022-10-07T00:24:48.580Z,500.6
2022-10-07T00:25:50.776Z,500.8
2022-10-07T00:26:53.232Z,500.5
2022-10-07T00:27:55.728Z,500.9
2022-10-07T00:28:58.184Z,501.1
2022-10-07T00:30:00.724Z,501.3
2022-10-07T00:31:03.767Z,501.4
2022-10-07T00:32:06.255Z,501.6
2022-10-07T00:33:08.439Z,501.8
2022-10-07T00:34:10.629Z,502
2022-10-07T00:35:13.155Z,502.3
2022-10-07T00:36:17.025Z,502.2
2022-10-07T00:37:19.505Z,502
2022-10-07T00:38:21.980Z,502.5
2022-10-07T00:39:23.902Z,503.2
2022-10-07T00:40:25.831Z,503.1
2022-10-07T00:41:28.310Z,503.4
2022-10-07T00:42:30.786Z,503.1
2022-10-07T00:43:33.289Z,503.5
2022-10-07T00:44:35.791Z,503.6
2022-10-07T00:45:38.440Z,503.7
2022-10-07T00:46:40.648Z,503.4
2022-10-07T00:47:44.739Z,503.7
2022-10-07T00:48:47.365Z,503.7
2022-10-07T00:49:49.837Z,503.8
2022-10-07T00:50:52.406Z,504
2022-10-07T00:51:54.315Z,504.1
2022-10-07T00:52:56.495Z,504
2022-10-07T00:53:58.966Z,504.3
2022-10-07T00:55:01.187Z,504.3
2022-10-07T00:56:03.668Z,504.5
2022-10-07T00:57:05.304Z,504.6
2022-10-07T00:58:07.230Z,504.6
2022-10-07T00:59:09.713Z,505
2022-10-07T01:00:11.925Z,505
2022-10-07T01:01:14.773Z,505
2022-10-07T01:02:17.027Z,505.3
2022-10-07T01:03:19.213Z,505.3
2022-10-07T01:04:21.421Z,505.2
2022-10-07T01:05:23.629Z,505.2
2022-10-07T01:06:26.181Z,505.4
2022-10-07T01:07:28.647Z,505.2
2022-10-07T01:08:30.848Z,505.2
2022-10-07T01:09:33.042Z,505.5
2022-10-07T01:10:35.516Z,505.5
2022-10-07T01:11:37.708Z,505.3
2022-10-07T01:12:40.256Z,505.7
2022-10-07T01:13:42.192Z,505.7
2022-10-07T01:14:44.682Z,505.7
2022-10-07T01:15:47.150Z,506.5
2022-10-07T01:16:50.202Z,505.8
2022-10-07T01:17:52.775Z,506
2022-10-07T01:18:54.954Z,506.4
2022-10-07T01:19:56.899Z,506.6
2022-10-07T01:20:59.383Z,506.6
2022-10-07T01:22:01.639Z,506.5
2022-10-07T01:23:03.851Z,506.7
2022-10-07T01:24:06.308Z,506.9
2022-10-07T01:25:08.802Z,506.5
2022-10-07T01:26:11.272Z,506.8
2022-10-07T01:27:13.184Z,507.1
2022-10-07T01:28:15.720Z,507.1
2022-10-07T01:29:18.232Z,507.4
2022-10-07T01:30:20.462Z,506.9
2022-10-07T01:31:23.471Z,507.2
2022-10-07T01:32:25.737Z,507.4
2022-10-07T01:33:28.216Z,507.7
2022-10-07T01:34:29.843Z,507.8
2022-10-07T01:35:32.045Z,508.1
2022-10-07T01:36:34.242Z,507.9
2022-10-07T01:37:37.042Z,507.7
2022-10-07T01:38:39.231Z,507.9
2022-10-07T01:39:41.407Z,508.2
2022-10-07T01:40:43.874Z,508.3
2022-10-07T01:41:46.350Z,508.1
2022-10-07T01:42:48.823Z,508.2
2022-10-07T01:43:50.725Z,508.6
2022-10-07T01:44:52.898Z,508.5
2022-10-07T01:45:55.749Z,508.6
2022-10-07T01:46:58.241Z,508.7
2022-10-07T01:48:00.428Z,508.5
2022-10-07T01:49:02.911Z,508.6
2022-10-07T01:50:05.105Z,508.8
2022-10-07T01:51:07.303Z,508.9
2022-10-07T01:52:09.511Z,508.9
2022-10-07T01:53:12.400Z,509.3
2022-10-07T01:54:14.591Z,509
2022-10-07T01:55:16.532Z,509
2022-10-07T01:56:19.018Z,509.3
2022-10-07T01:57:21.489Z,509.3
2022-10-07T01:58:23.965Z,509.4
2022-10-07T01:59:26.440Z,509.4
2022-10-07T02:00:28.931Z,509.2
2022-10-07T02:01:31.929Z,509
2022-10-07T02:02:34.157Z,509
2022-10-07T02:03:36.948Z,509.5
2022-10-07T02:04:39.444Z,509.7
2022-10-07T02:05:41.916Z,509.1
2022-10-07T02:06:44.103Z,509.3
2022-10-07T02:07:47.984Z,509.8
2022-10-07T02:08:50.598Z,509.6
2022-10-07T02:09:52.785Z,509.8
2022-10-07T02:10:54.977Z,509.8
2022-10-07T02:11:57.452Z,509.3
2022-10-07T02:12:59.931Z,509.5
2022-10-07T02:14:02.159Z,509.6
2022-10-07T02:15:04.354Z,509.8
2022-10-07T02:17:13.053Z,510.1
2022-10-07T02:18:15.264Z,510.2
2022-10-07T02:19:17.745Z,510
2022-10-07T02:20:20.216Z,510
2022-10-07T02:21:22.394Z,510.4
2022-10-07T02:22:24.860Z,509.9
2022-10-07T02:23:27.335Z,510.3
2022-10-07T02:24:29.901Z,509.9
2022-10-07T02:25:32.374Z,510.3
2022-10-07T02:26:34.843Z,510.5
2022-10-07T02:27:37.038Z,510.1
2022-10-07T02:28:39.798Z,510.2
2022-10-07T02:29:42.048Z,510.5
2022-10-07T02:30:44.770Z,510.5
2022-10-07T02:31:47.302Z,510.7
2022-10-07T02:32:49.528Z,510.7
2022-10-07T02:33:52.002Z,510.8
2022-10-07T02:34:53.922Z,510.8
2022-10-07T02:35:56.122Z,510.9
2022-10-07T02:36:58.299Z,510.5
2022-10-07T02:38:00.512Z,511.2
2022-10-07T02:39:02.443Z,511
2022-10-07T02:41:10.494Z,510.8
2022-10-07T02:42:12.952Z,511.2
2022-10-07T02:43:14.888Z,511.3
2022-10-07T02:44:17.412Z,511.3
2022-10-07T02:46:25.913Z,511.7
2022-10-07T02:47:27.901Z,512.1
2022-10-07T02:48:30.393Z,511.9
2022-10-07T02:49:32.901Z,511.8
2022-10-07T02:50:35.094Z,511.6
2022-10-07T02:51:37.560Z,511.5
2022-10-07T02:52:40.038Z,511.8
2022-10-07T02:53:42.210Z,511.8
2022-10-07T02:54:44.410Z,511.9
2022-10-07T02:55:46.604Z,511.8
2022-10-07T02:56:49.143Z,512.3
2022-10-07T02:57:51.605Z,512.3
2022-10-07T02:58:54.073Z,512.1
2022-10-07T02:59:56.546Z,512.2
2022-10-07T03:00:59.019Z,512.6
2022-10-07T03:02:01.910Z,512.4
2022-10-07T03:03:04.400Z,512.6
2022-10-07T03:04:07.050Z,512.4
2022-10-07T03:05:09.286Z,512.4
2022-10-07T03:06:11.756Z,512.6
2022-10-07T03:07:13.962Z,513
2022-10-07T03:08:16.843Z,512.7
2022-10-07T03:09:19.327Z,512.3
2022-10-07T03:10:21.522Z,512.9
2022-10-07T03:11:23.735Z,512.5
2022-10-07T03:12:25.982Z,512.5
2022-10-07T03:13:28.451Z,512.8
2022-10-07T03:14:30.390Z,512.7
2022-10-07T03:15:33.090Z,512.8
2022-10-07T03:16:35.745Z,512.8
2022-10-07T03:17:38.225Z,512.6
2022-10-07T03:18:40.418Z,513.3
2022-10-07T03:19:42.916Z,513.1
2022-10-07T03:20:45.109Z,513.2
2022-10-07T03:21:47.315Z,513
2022-10-07T03:22:49.792Z,512.9
2022-10-07T03:23:52.266Z,512.9
2022-10-07T03:24:54.734Z,512.8
2022-10-07T03:25:56.912Z,513
2022-10-07T03:26:59.131Z,512.7
2022-10-07T03:28:01.985Z,512.8
2022-10-07T03:29:04.491Z,513.4
2022-10-07T03:30:06.688Z,513.1
2022-10-07T03:31:09.606Z,512.8
2022-10-07T03:32:11.853Z,513.4
2022-10-07T03:33:14.365Z,512.7
2022-10-07T03:34:16.855Z,513.1
2022-10-07T03:35:19.363Z,513.5
2022-10-07T03:36:21.845Z,513.3
2022-10-07T03:37:24.352Z,513.3
2022-10-07T03:38:26.552Z,513.1
2022-10-07T03:39:29.025Z,513.3
2022-10-07T03:40:31.214Z,513.1
2022-10-07T03:41:33.418Z,513.3
2022-10-07T03:42:36.221Z,513.2
2022-10-07T03:43:38.880Z,513.3
2022-10-07T03:44:41.395Z,513.5
2022-10-07T03:45:43.892Z,513.7
2022-10-07T03:46:46.770Z,513.6
2022-10-07T03:47:49.240Z,513.9
2022-10-07T03:48:51.751Z,513.9
2022-10-07T03:49:53.979Z,513.8
2022-10-07T03:50:56.465Z,514.1
2022-10-07T03:51:58.940Z,514
2022-10-07T03:53:00.840Z,513.9
2022-10-07T03:54:03.035Z,513.8
2022-10-07T03:55:05.503Z,513.8
2022-10-07T03:56:07.695Z,514.4
2022-10-07T03:57:10.155Z,514
2022-10-07T03:58:12.374Z,514
2022-10-07T03:59:14.996Z,513.9
2022-10-07T04:00:17.182Z,513.9
2022-10-07T04:01:20.038Z,513.9
2022-10-07T04:02:21.989Z,513.9
2022-10-07T04:03:24.693Z,513.9
2022-10-07T04:04:27.223Z,513.8
2022-10-07T04:05:29.699Z,513.9
2022-10-07T04:06:32.209Z,514.2
2022-10-07T04:07:34.677Z,514.4
2022-10-07T04:08:37.152Z,514.5
2022-10-07T04:09:39.635Z,514.3
2022-10-07T04:10:42.106Z,514.3
2022-10-07T04:11:44.568Z,514.5
2022-10-07T04:12:46.465Z,514.3
2022-10-07T04:13:48.941Z,514.5
2022-10-07T04:14:51.255Z,514.5
2022-10-07T04:15:53.544Z,514.7
2022-10-07T04:16:55.494Z,514.3
2022-10-07T04:17:57.959Z,514.2
2022-10-07T04:19:00.165Z,515
2022-10-07T04:20:02.629Z,515
2022-10-07T04:21:04.525Z,514.7
2022-10-07T04:23:11.713Z,515.4
2022-10-07T04:24:14.178Z,515.2
2022-10-07T04:25:16.658Z,515.3
2022-10-07T04:26:19.006Z,515.3
2022-10-07T04:28:26.934Z,515.7
2022-10-07T04:29:29.226Z,516.1
2022-10-07T04:30:31.644Z,515.9
2022-10-07T04:31:34.431Z,516.4
2022-10-07T04:32:36.674Z,516.7
2022-10-07T04:33:39.140Z,516.6
2022-10-07T04:34:41.355Z,516.8
2022-10-07T04:35:43.257Z,517.1
2022-10-07T04:36:45.732Z,517
2022-10-07T04:37:49.267Z,516.6
2022-10-07T04:38:51.497Z,517
2022-10-07T04:40:58.402Z,517.4
2022-10-07T04:42:00.587Z,517.1
2022-10-07T04:43:03.061Z,517.1
2022-10-07T04:44:05.227Z,517.2
2022-10-07T04:45:07.427Z,517
2022-10-07T04:46:09.673Z,517.1
2022-10-07T04:47:12.426Z,517.2
2022-10-07T04:48:14.386Z,517.2
2022-10-07T04:49:16.867Z,517.5
2022-10-07T04:50:18.783Z,517.4
2022-10-07T04:51:21.250Z,517.4
2022-10-07T04:52:23.723Z,517.6
2022-10-07T04:53:26.218Z,517.2
2022-10-07T04:54:28.690Z,516.9
2022-10-07T04:55:30.620Z,516.8
2022-10-07T04:56:32.837Z,516.7
2022-10-07T04:57:34.779Z,516.9
2022-10-07T04:58:37.253Z,517.3
2022-10-07T05:00:44.483Z,517.1
2022-10-07T05:01:47.080Z,517.2
2022-10-07T05:02:49.572Z,517.6
2022-10-07T05:03:51.483Z,517.7
2022-10-07T05:04:53.954Z,517.8
2022-10-07T05:05:56.444Z,517.5
2022-10-07T05:06:58.658Z,517.3
2022-10-07T05:08:01.123Z,517.3
2022-10-07T05:09:03.620Z,517.4
2022-10-07T05:10:06.098Z,517.1
2022-10-07T05:11:08.298Z,517.7
2022-10-07T05:12:10.765Z,517.6
2022-10-07T05:13:13.245Z,517.4
2022-10-07T05:14:15.721Z,517.2
2022-10-07T05:15:18.192Z,517.3
2022-10-07T05:16:20.729Z,517.6
2022-10-07T05:17:23.447Z,517.8
2022-10-07T05:18:25.914Z,517.1
2022-10-07T05:19:28.118Z,517.3
2022-10-07T05:20:30.026Z,517.7
2022-10-07T05:21:32.223Z,517.2
2022-10-07T05:22:34.704Z,517.3
2022-10-07T05:23:36.924Z,517.5
2022-10-07T05:24:39.402Z,517.8
2022-10-07T05:25:41.606Z,517.6
2022-10-07T05:26:43.569Z,517.4
2022-10-07T05:27:47.809Z,517.5
2022-10-07T05:28:50.649Z,517.8
2022-10-07T05:29:52.592Z,517.1
2022-10-07T05:30:55.054Z,517.2
2022-10-07T05:33:02.884Z,517.9
2022-10-07T05:34:05.086Z,517.4
2022-10-07T05:35:06.994Z,517.5
2022-10-07T05:36:09.232Z,517.6
2022-10-07T05:37:11.440Z,517.5
2022-10-07T05:38:13.622Z,517.6
2022-10-07T05:39:15.826Z,517.5
2022-10-07T05:40:18.316Z,517.8
2022-10-07T05:41:21.029Z,517.5
2022-10-07T05:42:22.953Z,517.8
2022-10-07T05:43:24.900Z,517.9
2022-10-07T05:44:27.124Z,517.9
2022-10-07T05:45:29.687Z,517.8
2022-10-07T05:46:31.664Z,518.1
2022-10-07T05:47:33.873Z,518.1
2022-10-07T05:49:41.411Z,518.3
2022-10-07T05:50:43.363Z,518.3
2022-10-07T05:51:45.868Z,518
2022-10-07T05:52:48.077Z,518.2
2022-10-07T05:53:50.282Z,518.3
2022-10-07T05:54:51.931Z,518
2022-10-07T05:55:54.169Z,518.3
2022-10-07T05:56:56.365Z,518.5
2022-10-07T05:57:58.565Z,518.7
2022-10-07T05:59:00.492Z,518.4
2022-10-07T06:00:02.402Z,517.8
2022-10-07T06:02:10.048Z,517.9
2022-10-07T06:03:13.412Z,518.3
2022-10-07T06:04:15.660Z,517.5
2022-10-07T06:05:18.190Z,517.6
2022-10-07T06:06:20.110Z,517.8
2022-10-07T06:08:27.302Z,517.6
2022-10-07T06:09:29.777Z,517.3
2022-10-07T06:10:32.258Z,517.3
2022-10-07T06:11:34.498Z,517.2
2022-10-07T06:12:36.685Z,517.4
2022-10-07T06:13:38.882Z,517.4
2022-10-07T06:14:40.798Z,517
2022-10-07T06:15:42.995Z,516.9
2022-10-07T06:16:45.670Z,516.8
2022-10-07T06:17:50.268Z,516.8
2022-10-07T06:18:52.507Z,516.5
2022-10-07T06:19:54.725Z,516.3
2022-10-07T06:20:56.690Z,516.5
2022-10-07T06:21:58.896Z,516.4
2022-10-07T06:23:01.363Z,516.6
2022-10-07T06:24:03.859Z,516.5
2022-10-07T06:25:06.067Z,516.4
2022-10-07T06:26:07.973Z,516.8
2022-10-07T06:27:10.486Z,517.1
2022-10-07T06:28:13.136Z,517
2022-10-07T06:29:15.635Z,516.8
2022-10-07T06:30:18.110Z,516.7
2022-10-07T06:31:20.791Z,516.9
2022-10-07T06:32:22.733Z,517.2
2022-10-07T06:33:25.211Z,517.1
2022-10-07T06:34:27.707Z,517.1
2022-10-07T06:35:30.201Z,517.3
2022-10-07T06:36:32.484Z,517.2
2022-10-07T06:37:34.962Z,517
2022-10-07T06:38:37.436Z,517.3
2022-10-07T06:39:39.058Z,517
2022-10-07T06:40:41.266Z,517.2
2022-10-07T06:41:43.526Z,517
2022-10-07T06:42:45.731Z,517.3
2022-10-07T06:43:47.676Z,516.9
2022-10-07T06:44:50.147Z,516.7
2022-10-07T06:45:52.336Z,516.6
2022-10-07T06:46:54.576Z,516.7
2022-10-07T06:47:56.781Z,517
2022-10-07T06:48:58.680Z,516.6
2022-10-07T06:50:01.184Z,516.7
2022-10-07T06:51:03.103Z,516.9
2022-10-07T06:52:05.659Z,516.7
2022-10-07T06:53:07.880Z,516.9
2022-10-07T06:54:10.376Z,516.8
2022-10-07T06:55:12.851Z,516.4
2022-10-07T06:56:14.512Z,516.9
2022-10-07T06:58:22.114Z,516.7
2022-10-07T06:59:24.316Z,517
2022-10-07T07:00:27.050Z,517
2022-10-07T07:01:29.421Z,517.2
2022-10-07T07:02:32.064Z,516.9
2022-10-07T07:03:34.281Z,517.3
2022-10-07T07:04:36.766Z,517
2022-10-07T07:06:43.539Z,516.9
2022-10-07T07:07:48.474Z,516.7
2022-10-07T07:08:51.352Z,516.6
2022-10-07T07:09:53.269Z,517.2
2022-10-07T07:10:55.464Z,517
2022-10-07T07:11:57.836Z,517
2022-10-07T07:14:02.550Z,517.4
2022-10-07T07:15:05.084Z,517.4
2022-10-07T07:16:07.313Z,517.4
2022-10-07T07:17:10.042Z,517.4
2022-10-07T07:18:12.294Z,517.5
2022-10-07T07:19:14.796Z,517.5
2022-10-07T07:20:16.714Z,517.5
2022-10-07T07:21:19.218Z,517.2
2022-10-07T07:22:21.447Z,517.4
2022-10-07T07:23:24.117Z,517.4
2022-10-07T07:24:26.311Z,517.3
2022-10-07T07:25:28.503Z,517.2
2022-10-07T07:26:30.720Z,517.2
2022-10-07T07:27:33.684Z,516.9
2022-10-07T07:28:36.470Z,517.2
2022-10-07T07:29:38.758Z,517.1
2022-10-07T07:30:41.374Z,517.4
2022-10-07T07:31:43.632Z,516.9
2022-10-07T07:32:46.115Z,517
2022-10-07T07:33:48.605Z,517.2
2022-10-07T07:35:53.791Z,516.8
2022-10-07T07:36:55.989Z,517.3
2022-10-07T07:37:58.553Z,517.1
2022-10-07T07:39:00.573Z,517.2
2022-10-07T07:40:03.041Z,517.6
2022-10-07T07:41:04.966Z,517.6
2022-10-07T07:42:06.886Z,517.7
2022-10-07T07:43:09.077Z,518
2022-10-07T07:44:11.016Z,517.8
2022-10-07T07:45:12.958Z,517.6
2022-10-07T07:46:15.405Z,518.1
2022-10-07T07:47:17.692Z,517.8
2022-10-07T07:48:20.184Z,518.4
2022-10-07T07:49:22.395Z,518.1
2022-10-07T07:50:24.837Z,518.3
2022-10-07T07:51:27.059Z,517.7
2022-10-07T07:52:29.268Z,518.3
2022-10-07T07:53:31.204Z,518.5
2022-10-07T07:54:33.834Z,518.4
2022-10-07T07:55:36.042Z,518.4
2022-10-07T07:56:37.974Z,518.4
2022-10-07T07:57:40.450Z,518.7
2022-10-07T07:58:42.387Z,518.9
2022-10-07T07:59:44.871Z,518.9
2022-10-07T08:00:47.099Z,518.8
2022-10-07T08:01:48.730Z,518.6
2022-10-07T08:02:50.931Z,518.9
2022-10-07T08:03:53.181Z,519.1
2022-10-07T08:04:55.187Z,519.2
2022-10-07T08:05:57.115Z,519.2
2022-10-07T08:06:59.041Z,519.1
2022-10-07T08:08:01.536Z,519.3
2022-10-07T08:09:04.042Z,519.2
2022-10-07T08:10:06.682Z,519.7
2022-10-07T08:11:09.155Z,519.5
2022-10-07T08:12:11.375Z,519.4
2022-10-07T08:13:13.586Z,518.9
2022-10-07T08:14:16.071Z,518.6
2022-10-07T08:15:18.554Z,519.1
2022-10-07T08:16:20.780Z,519.1
2022-10-07T08:17:23.023Z,518.6
2022-10-07T08:18:24.684Z,518.6
2022-10-07T08:19:26.881Z,518.7
2022-10-07T08:20:29.073Z,519
2022-10-07T08:21:31.551Z,518.6
2022-10-07T08:22:33.547Z,518.9
2022-10-07T08:23:35.452Z,518.7
2022-10-07T08:24:37.978Z,518.6
2022-10-07T08:25:40.248Z,519.4
2022-10-07T08:26:42.451Z,519.2
2022-10-07T08:27:46.796Z,518.9
2022-10-07T08:28:49.439Z,519.1
2022-10-07T08:29:51.634Z,519.1
2022-10-07T08:30:54.499Z,519.6
2022-10-07T08:31:56.792Z,519.4
2022-10-07T08:34:03.999Z,519.4
2022-10-07T08:35:06.199Z,519.3
2022-10-07T08:36:08.319Z,519.9
2022-10-07T08:37:10.506Z,520.2
2022-10-07T08:39:17.778Z,519.7
2022-10-07T08:40:19.718Z,520.5
2022-10-07T08:41:22.296Z,520.2
2022-10-07T08:42:24.931Z,520.2
2022-10-07T08:43:26.614Z,520.3
2022-10-07T08:44:29.091Z,520.6
2022-10-07T08:45:31.033Z,520.6
2022-10-07T08:46:33.850Z,520.8
2022-10-07T08:47:36.119Z,520.7
2022-10-07T08:48:38.044Z,521.2
2022-10-07T08:49:39.999Z,520.8
2022-10-07T08:50:42.215Z,521.1
2022-10-07T08:51:44.170Z,521
2022-10-07T08:52:46.378Z,520.8
2022-10-07T08:53:48.863Z,521.3
2022-10-07T08:54:51.353Z,521
2022-10-07T08:55:53.598Z,521
2022-10-07T08:56:55.866Z,521.1
2022-10-07T08:57:58.337Z,520.9
2022-10-07T08:59:00.827Z,520.8
2022-10-07T09:00:02.742Z,521.2
2022-10-07T09:01:05.187Z,521
2022-10-07T09:02:07.120Z,521.4
2022-10-07T09:03:09.324Z,521.2
2022-10-07T09:04:11.564Z,521.5
2022-10-07T09:05:13.840Z,521.4
2022-10-07T09:06:16.056Z,521.8
2022-10-07T09:07:18.004Z,521.6
2022-10-07T09:08:20.212Z,521.7
2022-10-07T09:09:22.413Z,521.6
2022-10-07T09:10:24.604Z,521.6
2022-10-07T09:11:26.849Z,522.1
2022-10-07T09:12:29.393Z,522.1
2022-10-07T09:13:31.879Z,522.2
2022-10-07T09:14:34.063Z,522.5
2022-10-07T09:15:36.656Z,522.6
2022-10-07T09:16:38.312Z,522.2
2022-10-07T09:17:40.284Z,522.6
2022-10-07T09:18:42.305Z,522.4
2022-10-07T09:19:44.781Z,522.7
2022-10-07T09:20:47.000Z,522.7
2022-10-07T09:21:49.482Z,522.5
2022-10-07T09:22:51.688Z,522.6
2022-10-07T09:23:54.159Z,522.6
2022-10-07T09:24:58.074Z,522.8
2022-10-07T09:26:00.249Z,522.8
2022-10-07T09:27:02.759Z,522.6
2022-10-07T09:28:05.684Z,523
2022-10-07T09:29:07.678Z,522.8
2022-10-07T09:30:09.645Z,523
2022-10-07T09:31:12.282Z,523
2022-10-07T09:32:14.499Z,523.2
2022-10-07T09:33:16.868Z,523.4
2022-10-07T09:34:19.366Z,523.3
2022-10-07T09:35:21.572Z,523.7
2022-10-07T09:36:24.066Z,524
2022-10-07T09:37:26.273Z,524.1
2022-10-07T09:38:28.811Z,523.9
2022-10-07T09:39:31.381Z,523.6
2022-10-07T09:40:33.862Z,524.1
2022-10-07T09:41:35.782Z,523.5
2022-10-07T09:42:38.272Z,523.7
2022-10-07T09:43:40.895Z,523.7
2022-10-07T09:44:43.375Z,523.9
2022-10-07T09:45:45.567Z,524
2022-10-07T09:46:48.446Z,523.5
2022-10-07T09:47:51.160Z,523.3
2022-10-07T09:48:53.632Z,523.7
2022-10-07T09:49:56.145Z,523.7
2022-10-07T09:50:58.627Z,523.5
2022-10-07T09:52:00.825Z,523.7
2022-10-07T09:53:03.041Z,523.9
2022-10-07T09:54:05.231Z,523.5
2022-10-07T09:55:07.712Z,523.9
2022-10-07T09:56:10.211Z,523.9
2022-10-07T09:58:20.222Z,524.4
2022-10-07T09:59:22.759Z,524.2
2022-10-07T10:00:25.268Z,524.4
2022-10-07T10:01:27.492Z,524.6
2022-10-07T10:02:30.462Z,524.8
2022-10-07T10:03:33.978Z,524.6
2022-10-07T10:04:36.511Z,524.6
2022-10-07T10:05:39.019Z,525
2022-10-07T10:06:40.968Z,525
2022-10-07T10:07:43.520Z,524.9
2022-10-07T10:08:46.141Z,525.4
2022-10-07T10:09:48.656Z,524.8
2022-10-07T10:10:51.148Z,525
2022-10-07T10:11:53.576Z,524.8
2022-10-07T10:12:55.776Z,525
2022-10-07T10:13:58.391Z,525.1
2022-10-07T10:15:00.967Z,525.2
2022-10-07T10:16:04.002Z,525.1
2022-10-07T10:17:06.365Z,525.6
2022-10-07T10:18:08.566Z,525.2
2022-10-07T10:19:11.135Z,525.3
2022-10-07T10:20:13.616Z,525.5
2022-10-07T10:21:15.879Z,525.5
2022-10-07T10:22:18.344Z,525.5
2022-10-07T10:23:20.821Z,525.7
2022-10-07T10:24:23.309Z,525.3
2022-10-07T10:25:25.592Z,525.5
2022-10-07T10:27:33.052Z,525.3
2022-10-07T10:28:35.758Z,525.5
2022-10-07T10:29:38.021Z,525.7
2022-10-07T10:30:40.678Z,525.8
2022-10-07T10:31:43.348Z,526.2
2022-10-07T10:32:47.850Z,526.4
2022-10-07T10:33:50.351Z,526
2022-10-07T10:34:52.265Z,526.3
2022-10-07T10:35:54.482Z,526.3
2022-10-07T10:36:57.104Z,526.4
2022-10-07T10:37:59.308Z,526.8
2022-10-07T10:39:01.774Z,526.6
2022-10-07T10:40:04.005Z,526.7
2022-10-07T10:41:06.204Z,526.9
2022-10-07T10:42:08.418Z,527
2022-10-07T10:43:10.607Z,527.1
2022-10-07T10:44:13.091Z,527.6
2022-10-07T10:45:15.675Z,527.1
2022-10-07T10:46:18.602Z,527.4
2022-10-07T10:47:20.830Z,527.3
2022-10-07T10:48:23.328Z,527.3
2022-10-07T10:49:25.809Z,527.5
2022-10-07T10:50:28.294Z,527.9
2022-10-07T10:51:30.764Z,528.1
2022-10-07T10:52:33.280Z,527.9
2022-10-07T10:53:35.777Z,527.9
2022-10-07T10:54:37.976Z,528.1
2022-10-07T10:55:40.459Z,527.8
2022-10-07T10:56:42.083Z,528.2
2022-10-07T10:57:44.299Z,528.5
2022-10-07T10:58:46.497Z,528.4
2022-10-07T10:59:48.718Z,528.6
2022-10-07T11:00:51.290Z,528.5
2022-10-07T11:01:54.298Z,528.4
2022-10-07T11:02:56.541Z,528.8
2022-10-07T11:03:58.488Z,528.7
2022-10-07T11:05:00.691Z,528.6
2022-10-07T11:06:03.234Z,528.9
2022-10-07T11:07:05.446Z,529
2022-10-07T11:08:07.670Z,528.7
2022-10-07T11:09:10.156Z,528.8
2022-10-07T11:10:12.629Z,529.3
2022-10-07T11:11:14.542Z,529.1
2022-10-07T11:12:17.004Z,529.6
2022-10-07T11:13:19.339Z,529.7
2022-10-07T11:14:20.984Z,530.3
2022-10-07T11:15:23.166Z,530.2
2022-10-07T11:16:25.433Z,530.2
2022-10-07T11:17:27.757Z,530.5
2022-10-07T11:18:30.249Z,530.7
2022-10-07T11:19:32.583Z,530.3
2022-10-07T11:20:34.779Z,531
2022-10-07T11:21:37.251Z,530.9
2022-10-07T11:22:39.483Z,531.1
2022-10-07T11:23:41.704Z,530.9
2022-10-07T11:24:43.889Z,531
2022-10-07T11:25:46.085Z,530.7
2022-10-07T11:26:48.580Z,531.2
2022-10-07T11:27:50.502Z,531.2
2022-10-07T11:28:52.711Z,531.4
2022-10-07T11:29:55.191Z,531.6
2022-10-07T11:30:57.637Z,531.6
2022-10-07T11:32:00.198Z,532
2022-10-07T11:33:02.757Z,532.2
2022-10-07T11:34:05.222Z,532.1
2022-10-07T11:35:07.424Z,532.4
2022-10-07T11:36:09.623Z,532.7
2022-10-07T11:37:12.090Z,532.4
2022-10-07T11:38:14.070Z,532.7
2022-10-07T11:39:16.586Z,532.7
2022-10-07T11:40:18.849Z,532.6
2022-10-07T11:41:21.357Z,532.9
2022-10-07T11:42:23.782Z,532.9
2022-10-07T11:43:25.688Z,533.4
2022-10-07T11:44:28.177Z,533.4
2022-10-07T11:45:30.377Z,533.9
2022-10-07T11:46:33.162Z,533.9
2022-10-07T11:47:35.719Z,534
2022-10-07T11:48:38.302Z,534.2
2022-10-07T11:49:40.490Z,534.1
2022-10-07T11:50:42.714Z,534.5
2022-10-07T11:51:44.612Z,535
2022-10-07T11:52:48.482Z,534.9
2022-10-07T11:53:50.834Z,535
2022-10-07T11:54:53.362Z,535.3
2022-10-07T11:55:57.080Z,535.3
2022-10-07T11:56:58.995Z,535.4
2022-10-07T11:58:01.198Z,535.1
2022-10-07T11:59:03.415Z,535.5
2022-10-07T12:00:05.450Z,535.5
2022-10-07T12:01:07.962Z,535.9
2022-10-07T12:02:11.168Z,535.7
2022-10-07T12:03:16.954Z,536.2
2022-10-07T12:04:18.937Z,536.1
2022-10-07T12:05:21.151Z,535.6
2022-10-07T12:06:23.654Z,536.2
2022-10-07T12:07:26.152Z,536.5
2022-10-07T12:08:28.351Z,536.5
2022-10-07T12:09:30.566Z,537
2022-10-07T12:10:33.204Z,536.8
2022-10-07T12:11:35.692Z,536.8
2022-10-07T12:12:37.897Z,536.5
2022-10-07T12:13:40.382Z,537.1
2022-10-07T12:14:42.758Z,537
2022-10-07T12:15:45.256Z,536.9
2022-10-07T12:16:47.578Z,537.4
2022-10-07T12:17:49.492Z,537.6
2022-10-07T12:18:51.995Z,537.4
2022-10-07T12:19:54.577Z,537.7
2022-10-07T12:20:57.092Z,537.9
2022-10-07T12:21:59.714Z,538.2
2022-10-07T12:23:01.705Z,538.1
2022-10-07T12:24:04.184Z,538.5
2022-10-07T12:26:11.682Z,538.8
2022-10-07T12:27:14.151Z,538.7
2022-10-07T12:28:16.794Z,539.2
2022-10-07T12:29:18.733Z,539.3
2022-10-07T12:30:21.216Z,539.3
2022-10-07T12:31:24.129Z,539.4
2022-10-07T12:32:26.746Z,539.8
2022-10-07T12:33:28.674Z,539.8
2022-10-07T12:34:30.929Z,540.4
2022-10-07T12:35:33.202Z,540.6
2022-10-07T12:36:35.415Z,540.7
2022-10-07T12:37:37.381Z,540.8
2022-10-07T12:38:39.609Z,540.6
2022-10-07T12:39:42.100Z,541.1
2022-10-07T12:40:44.326Z,541.1
2022-10-07T12:41:46.564Z,540.6
2022-10-07T12:42:49.743Z,541.2
2022-10-07T12:43:52.219Z,541
2022-10-07T12:44:54.201Z,540.8
2022-10-07T12:45:57.135Z,540.7
2022-10-07T12:46:59.644Z,541.4
2022-10-07T12:48:02.175Z,541.3
2022-10-07T12:49:04.114Z,541.4
2022-10-07T12:50:06.360Z,541.3
2022-10-07T12:51:08.695Z,541.4
2022-10-07T12:52:10.904Z,541.6
2022-10-07T12:53:13.383Z,541.8
2022-10-07T12:54:15.287Z,541.7
2022-10-07T12:55:17.512Z,541.6
2022-10-07T12:56:19.736Z,542
2022-10-07T12:57:22.258Z,541.8
2022-10-07T12:58:24.459Z,541.6
2022-10-07T12:59:26.391Z,542
2022-10-07T13:00:28.589Z,542.1
2022-10-07T13:01:31.871Z,541.9
2022-10-07T13:02:33.770Z,542.3
2022-10-07T13:03:35.682Z,542.1
2022-10-07T13:04:38.168Z,542.2
2022-10-07T13:05:40.784Z,542.4
2022-10-07T13:06:43.106Z,542.8
2022-10-07T13:07:45.315Z,542.9
2022-10-07T13:08:47.839Z,543
2022-10-07T13:09:50.071Z,542.9
2022-10-07T13:10:52.281Z,543.4
2022-10-07T13:11:54.493Z,543.3
2022-10-07T13:12:56.989Z,543.2
2022-10-07T13:13:59.478Z,543.7
2022-10-07T13:15:01.972Z,543.7
2022-10-07T13:16:04.809Z,543.5
2022-10-07T13:17:07.331Z,543.7
2022-10-07T13:19:14.808Z,544
2022-10-07T13:20:16.743Z,543.9
2022-10-07T13:21:18.711Z,544.1
2022-10-07T13:22:20.763Z,543.8
2022-10-07T13:24:27.958Z,544
2022-10-07T13:25:30.464Z,544.2
2022-10-07T13:26:32.670Z,544.3
2022-10-07T13:27:34.875Z,544.3
2022-10-07T13:28:37.738Z,544.7
2022-10-07T13:29:39.444Z,545
2022-10-07T13:30:41.130Z,545.2
2022-10-07T13:31:43.658Z,545.4
2022-10-07T13:32:47.496Z,545.3
2022-10-07T13:33:50.236Z,545.3
2022-10-07T13:34:52.717Z,545.7
2022-10-07T13:35:54.932Z,545.6
2022-10-07T13:36:57.187Z,545.6
2022-10-07T13:37:59.165Z,546.1
2022-10-07T13:39:01.093Z,545.7
2022-10-07T13:40:03.603Z,546
2022-10-07T13:41:05.529Z,546.1
2022-10-07T13:42:08.008Z,545.9
2022-10-07T13:43:10.207Z,545.9
2022-10-07T13:44:12.432Z,546
2022-10-07T13:45:14.643Z,545.9
2022-10-07T13:46:17.018Z,545.9
2022-10-07T13:47:19.624Z,546
2022-10-07T13:48:21.831Z,546.3
2022-10-07T13:49:24.315Z,546.2
2022-10-07T13:50:26.514Z,546.2
2022-10-07T13:51:28.988Z,546.6
2022-10-07T13:52:31.232Z,546.6